Time;durP1;ratioP1;P1;durP2;ratioP2;P2;SDS_P1;SDS_P2;PMS_P1;PMS_P2;Temp;Humidity;BMP_temperature;BMP_pressure;BME280_temperature;BME280_humidity;BME280_pressure;Samples;Min_cycle;Max_cycle;Signal;HPM_P1;HPM_P2
2021/03/16 00:01:50;;;;;;;22.83;5.00;;;7.30;93.70;;;;;;5095291;28;20497;-72
2021/03/16 00:04:17;;;;;;;31.20;5.30;;;7.30;93.70;;;;;;5095205;28;20475;-72
2021/03/16 00:06:43;;;;;;;19.43;5.00;;;7.40;93.60;;;;;;5094986;28;20946;-72
2021/03/16 00:09:10;;;;;;;25.00;4.47;;;7.40;93.50;;;;;;5095049;28;21004;-72
2021/03/16 00:11:37;;;;;;;20.57;4.10;;;7.40;93.30;;;;;;5095028;28;20451;-72
2021/03/16 00:14:04;;;;;;;18.00;3.70;;;7.30;93.30;;;;;;5094789;28;20459;-72
2021/03/16 00:16:30;;;;;;;22.10;4.23;;;7.30;93.40;;;;;;5095004;28;20447;-72
2021/03/16 00:18:56;;;;;;;18.43;3.80;;;7.30;93.30;;;;;;5094577;28;20464;-72
2021/03/16 00:21:22;;;;;;;18.83;4.20;;;7.30;93.30;;;;;;5094939;28;20444;-72
2021/03/16 00:23:48;;;;;;;19.50;4.30;;;7.30;93.40;;;;;;5094880;28;20443;-72
2021/03/16 00:26:15;;;;;;;13.57;3.10;;;7.30;93.30;;;;;;5094244;28;20839;-72
2021/03/16 00:28:42;;;;;;;18.07;3.77;;;7.30;93.20;;;;;;5094674;28;20446;-72
2021/03/16 00:31:08;;;;;;;27.30;4.30;;;7.30;93.10;;;;;;5094715;28;20470;-72
2021/03/16 00:33:34;;;;;;;14.70;3.50;;;7.30;93.10;;;;;;5094727;28;20448;-72
2021/03/16 00:36:00;;;;;;;21.23;4.53;;;7.30;93.00;;;;;;5094352;28;20812;-72
2021/03/16 00:38:27;;;;;;;9.10;3.20;;;7.30;92.90;;;;;;5094312;28;21030;-72
2021/03/16 00:40:53;;;;;;;15.50;3.20;;;7.30;92.80;;;;;;5094505;28;20455;-72
2021/03/16 00:43:19;;;;;;;19.30;3.80;;;7.30;92.70;;;;;;5094475;28;20444;-72
2021/03/16 00:45:46;;;;;;;10.07;3.53;;;7.40;92.70;;;;;;5094078;28;20890;-72
2021/03/16 00:48:17;;;;;;;12.83;3.43;;;7.40;92.60;;;;;;5094452;28;20808;-72
2021/03/16 00:50:43;;;;;;;20.13;4.13;;;7.50;92.40;;;;;;5094323;28;20467;-72
2021/03/16 00:53:09;;;;;;;17.20;3.33;;;7.40;92.20;;;;;;5094336;28;20440;-72
2021/03/16 00:55:36;;;;;;;16.37;3.03;;;7.40;91.80;;;;;;5094313;28;20804;-72
2021/03/16 00:58:02;;;;;;;15.13;3.73;;;7.50;91.40;;;;;;5094271;28;20455;-72
2021/03/16 01:00:29;;;;;;;13.60;3.20;;;7.50;91.10;;;;;;5094163;28;20467;-72
2021/03/16 01:02:58;;;;;;;12.23;2.83;;;7.50;91.00;;;;;;5094136;28;20443;-72
2021/03/16 01:05:24;;;;;;;11.47;2.77;;;7.50;90.90;;;;;;5093903;28;20491;-72
2021/03/16 01:07:50;;;;;;;14.90;3.17;;;7.50;91.00;;;;;;5094091;28;20458;-72
2021/03/16 01:10:19;;;;;;;12.17;2.70;;;7.40;91.00;;;;;;5093716;28;20839;-72
2021/03/16 01:12:45;;;;;;;19.00;3.53;;;7.50;91.20;;;;;;5094038;28;20444;-72
2021/03/16 01:15:13;;;;;;;17.63;4.00;;;7.40;91.30;;;;;;5093985;28;20446;-72
2021/03/16 01:17:39;;;;;;;15.83;3.60;;;7.40;91.50;;;;;;5093921;28;20522;-72
2021/03/16 01:20:11;;;;;;;11.23;3.07;;;7.40;91.60;;;;;;5093875;28;20468;-72
2021/03/16 01:22:37;;;;;;;19.70;4.00;;;7.40;91.80;;;;;;5093881;28;20432;-72
2021/03/16 01:25:04;;;;;;;10.93;3.53;;;7.40;91.80;;;;;;5093720;28;20475;-72
2021/03/16 01:27:30;;;;;;;12.90;4.40;;;7.40;91.70;;;;;;5093823;28;20844;-72
2021/03/16 01:29:56;;;;;;;16.60;3.47;;;7.40;91.90;;;;;;5093706;28;20463;-72
2021/03/16 01:32:22;;;;;;;16.03;4.23;;;7.40;91.90;;;;;;5093728;28;20482;-72
2021/03/16 01:34:49;;;;;;;18.30;4.43;;;7.40;91.70;;;;;;5093713;28;20447;-72
2021/03/16 01:37:16;;;;;;;18.47;3.83;;;7.40;91.60;;;;;;5093729;28;20443;-72
2021/03/16 01:39:44;;;;;;;22.53;4.27;;;7.30;91.50;;;;;;5093254;28;20456;-72
2021/03/16 01:42:10;;;;;;;14.37;3.70;;;7.30;91.60;;;;;;5093341;28;20534;-72
2021/03/16 01:44:37;;;;;;;17.03;4.33;;;7.30;91.60;;;;;;5093563;28;20885;-72
2021/03/16 01:47:04;;;;;;;16.20;3.97;;;7.30;91.60;;;;;;5093633;28;20448;-72
2021/03/16 01:49:30;;;;;;;15.63;4.97;;;7.30;91.40;;;;;;5093478;28;20463;-72
2021/03/16 01:51:57;;;;;;;18.30;4.43;;;7.30;91.30;;;;;;5093543;28;20455;-72
2021/03/16 01:54:24;;;;;;;15.70;4.43;;;7.20;91.40;;;;;;5093527;28;20485;-72
2021/03/16 01:56:51;;;;;;;15.70;3.23;;;7.20;91.80;;;;;;5093562;28;20565;-72
2021/03/16 01:59:18;;;;;;;22.13;3.73;;;7.20;91.90;;;;;;5093359;28;20873;-72
2021/03/16 02:01:45;;;;;;;16.67;3.40;;;7.20;92.20;;;;;;5093470;28;20427;-72
2021/03/16 02:04:11;;;;;;;16.37;4.10;;;7.20;92.20;;;;;;5093789;28;20443;-72
2021/03/16 02:06:45;;;;;;;21.97;3.80;;;7.20;92.20;;;;;;5093140;28;20451;-72
2021/03/16 02:09:19;;;;;;;20.63;3.90;;;7.20;92.40;;;;;;5093398;28;20463;-72
2021/03/16 02:11:50;;;;;;;16.90;5.03;;;7.10;92.40;;;;;;5093197;28;20424;-72
2021/03/16 02:14:22;;;;;;;20.07;4.53;;;7.10;92.50;;;;;;5093457;28;20440;-72
2021/03/16 02:16:54;;;;;;;16.67;4.00;;;7.10;92.50;;;;;;5093373;28;20427;-72
2021/03/16 02:19:38;;;;;;;18.53;3.67;;;7.20;92.40;;;;;;5093534;28;20460;-72
2021/03/16 02:22:05;;;;;;;19.77;3.97;;;7.20;92.40;;;;;;5093368;28;20424;-72
2021/03/16 02:24:50;;;;;;;10.50;2.90;;;7.20;92.30;;;;;;5093177;28;20528;-72
2021/03/16 02:27:20;;;;;;;14.07;3.77;;;7.20;92.30;;;;;;5093252;28;20428;-72
2021/03/16 02:29:49;;;;;;;8.90;3.27;;;7.20;92.40;;;;;;5093166;28;20849;-72
2021/03/16 02:32:19;;;;;;;11.17;3.83;;;7.20;92.30;;;;;;5093279;28;20447;-72
2021/03/16 02:34:51;;;;;;;15.53;3.63;;;7.30;92.30;;;;;;5093731;28;20436;-72
2021/03/16 02:37:19;;;;;;;20.37;3.43;;;7.30;92.20;;;;;;5093284;28;20428;-72
2021/03/16 02:39:48;;;;;;;17.90;3.00;;;7.30;92.00;;;;;;5093095;28;20467;-72
2021/03/16 02:42:16;;;;;;;8.60;2.30;;;7.30;91.80;;;;;;5093176;28;20439;-72
2021/03/16 02:44:43;;;;;;;13.87;3.27;;;7.30;91.80;;;;;;5093085;28;20888;-72
2021/03/16 02:47:11;;;;;;;8.53;2.97;;;7.30;91.80;;;;;;5093175;28;20444;-72
2021/03/16 02:49:41;;;;;;;13.77;3.23;;;7.20;91.70;;;;;;5094558;28;20467;-72
2021/03/16 02:52:09;;;;;;;16.90;3.70;;;7.30;91.80;;;;;;5096728;28;20444;-72
2021/03/16 02:54:35;;;;;;;18.63;3.70;;;7.30;92.00;;;;;;5096695;28;20443;-72
2021/03/16 02:57:02;;;;;;;18.27;3.63;;;7.30;91.60;;;;;;5096896;28;20435;-72
2021/03/16 02:59:31;;;;;;;9.17;3.40;;;7.30;91.50;;;;;;5096476;28;20459;-72
2021/03/16 03:01:58;;;;;;;10.10;3.40;;;7.30;91.60;;;;;;5096226;28;20853;-72
2021/03/16 03:04:27;;;;;;;18.47;3.10;;;7.30;91.50;;;;;;5096406;28;20448;-72
2021/03/16 03:06:54;;;;;;;15.20;3.47;;;7.30;91.40;;;;;;5096255;28;20458;-72
2021/03/16 03:09:21;;;;;;;17.83;2.90;;;7.30;91.30;;;;;;5096307;28;20524;-72
2021/03/16 03:11:47;;;;;;;12.27;3.30;;;7.30;91.20;;;;;;5096039;28;20444;-72
2021/03/16 03:14:14;;;;;;;13.83;3.87;;;7.30;91.10;;;;;;5096328;28;20533;-72
2021/03/16 03:16:41;;;;;;;16.23;3.50;;;7.30;91.20;;;;;;5096295;28;20530;-72
2021/03/16 03:19:07;;;;;;;12.10;2.90;;;7.30;91.30;;;;;;5096144;28;20463;-72
2021/03/16 03:21:42;;;;;;;13.53;3.60;;;7.30;91.30;;;;;;5096170;28;20439;-72
2021/03/16 03:24:11;;;;;;;13.13;3.30;;;7.30;91.40;;;;;;5096406;28;20450;-72
2021/03/16 03:26:46;;;;;;;11.07;2.40;;;7.30;91.40;;;;;;5096075;28;20799;-72
2021/03/16 03:29:13;;;;;;;9.90;3.03;;;7.30;91.60;;;;;;5096039;28;20475;-72
2021/03/16 03:31:43;;;;;;;16.73;4.07;;;7.20;91.70;;;;;;5095993;28;20451;-72
2021/03/16 03:34:11;;;;;;;9.73;2.80;;;7.30;91.90;;;;;;5095563;28;20957;-72
2021/03/16 03:36:39;;;;;;;10.50;3.60;;;7.20;91.80;;;;;;5095507;28;20956;-72
2021/03/16 03:39:07;;;;;;;16.40;3.40;;;7.20;91.80;;;;;;5095972;28;20463;-71
2021/03/16 03:41:34;;;;;;;14.70;3.43;;;7.20;91.90;;;;;;5095750;28;20443;-72
2021/03/16 03:44:01;;;;;;;10.87;2.90;;;7.20;91.80;;;;;;5095709;28;20455;-72
2021/03/16 03:46:30;;;;;;;20.63;3.20;;;7.20;91.80;;;;;;5095551;28;20475;-72
2021/03/16 03:48:57;;;;;;;19.77;3.73;;;7.20;91.90;;;;;;5095550;28;20447;-72
2021/03/16 03:51:23;;;;;;;16.83;4.47;;;7.10;91.90;;;;;;5095237;28;20891;-72
2021/03/16 03:53:51;;;;;;;18.87;3.23;;;7.10;92.00;;;;;;5095500;28;20447;-72
2021/03/16 03:56:18;;;;;;;15.43;3.50;;;7.10;92.10;;;;;;5095475;28;20440;-72
2021/03/16 03:58:46;;;;;;;12.00;3.00;;;7.10;92.30;;;;;;5095372;28;20485;-72
2021/03/16 04:01:13;;;;;;;20.37;4.60;;;7.10;92.50;;;;;;5094141;28;20977;-72
2021/03/16 04:03:40;;;;;;;15.37;3.60;;;7.00;92.70;;;;;;5095308;28;20440;-72
2021/03/16 04:06:07;;;;;;;19.73;3.30;;;7.00;93.00;;;;;;5094911;28;20483;-72
2021/03/16 04:08:34;;;;;;;18.43;3.57;;;7.00;93.10;;;;;;5095210;28;20443;-72
2021/03/16 04:11:02;;;;;;;17.80;3.70;;;7.00;93.10;;;;;;5095071;28;20464;-72
2021/03/16 04:13:29;;;;;;;24.33;3.20;;;7.00;93.10;;;;;;5095083;28;20439;-72
2021/03/16 04:15:55;;;;;;;17.83;4.43;;;7.00;93.10;;;;;;5095047;28;20447;-72
2021/03/16 04:18:22;;;;;;;15.53;4.63;;;7.10;93.10;;;;;;5095061;28;20439;-72
2021/03/16 04:20:49;;;;;;;24.17;3.83;;;7.10;93.00;;;;;;5094896;28;20474;-72
2021/03/16 04:23:15;;;;;;;12.70;2.67;;;7.10;92.90;;;;;;5095198;28;20444;-72
2021/03/16 04:25:42;;;;;;;14.40;3.17;;;7.10;92.70;;;;;;5094784;28;20479;-72
2021/03/16 04:28:09;;;;;;;16.00;2.87;;;7.10;92.90;;;;;;5094825;28;20524;-72
2021/03/16 04:30:35;;;;;;;13.87;3.37;;;7.00;92.90;;;;;;5094747;28;20464;-72
2021/03/16 04:33:01;;;;;;;17.50;5.10;;;7.00;93.00;;;;;;5094736;28;20518;-72
2021/03/16 04:35:27;;;;;;;19.60;3.17;;;7.00;92.90;;;;;;5094433;28;20906;-72
2021/03/16 04:37:54;;;;;;;16.60;3.53;;;7.00;93.00;;;;;;5094659;28;20444;-71
2021/03/16 04:40:20;;;;;;;13.00;4.10;;;6.90;93.10;;;;;;5094489;28;20472;-72
2021/03/16 04:42:47;;;;;;;14.43;2.83;;;6.90;93.20;;;;;;5094568;28;20451;-72
2021/03/16 04:45:15;;;;;;;14.13;3.80;;;6.90;93.10;;;;;;5094463;28;20470;-72
2021/03/16 04:47:42;;;;;;;20.00;4.40;;;6.90;93.20;;;;;;5094124;28;20440;-72
2021/03/16 04:50:09;;;;;;;12.80;3.23;;;6.90;93.20;;;;;;5094358;28;20517;-72
2021/03/16 04:52:35;;;;;;;11.00;3.50;;;6.90;93.20;;;;;;5094666;28;20444;-72
2021/03/16 04:55:01;;;;;;;13.47;5.40;;;6.90;93.40;;;;;;5094295;28;20435;-71
2021/03/16 04:57:27;;;;;;;14.13;3.27;;;6.80;93.50;;;;;;5094303;28;20447;-71
2021/03/16 04:59:54;;;;;;;20.30;3.63;;;6.80;93.70;;;;;;5094168;28;20464;-71
2021/03/16 05:02:21;;;;;;;18.40;3.63;;;6.70;93.80;;;;;;5094213;28;20451;-72
2021/03/16 05:04:47;;;;;;;9.70;3.10;;;6.70;94.00;;;;;;5094106;28;20475;-72
2021/03/16 05:07:13;;;;;;;20.63;4.83;;;6.70;94.10;;;;;;5093709;28;20451;-72
2021/03/16 05:09:40;;;;;;;18.23;4.53;;;6.80;94.10;;;;;;5094022;28;20463;-72
2021/03/16 05:12:07;;;;;;;20.27;4.63;;;6.80;94.00;;;;;;5093944;28;20447;-72
2021/03/16 05:14:33;;;;;;;19.10;4.37;;;6.80;93.90;;;;;;5094008;28;20452;-72
2021/03/16 05:17:00;;;;;;;10.83;4.00;;;6.80;93.90;;;;;;5093987;28;20443;-72
2021/03/16 05:19:27;;;;;;;19.30;3.60;;;6.90;93.80;;;;;;5093879;28;20467;-72
2021/03/16 05:21:54;;;;;;;18.63;3.80;;;6.80;93.70;;;;;;5095113;28;20444;-72
2021/03/16 05:24:20;;;;;;;20.80;3.93;;;6.80;93.80;;;;;;5094589;28;20933;-72
2021/03/16 05:26:46;;;;;;;10.20;3.77;;;6.80;93.90;;;;;;5094262;28;20479;-72
2021/03/16 05:29:12;;;;;;;14.23;3.93;;;6.90;93.90;;;;;;5093804;28;20463;-72
2021/03/16 05:31:38;;;;;;;14.43;4.50;;;6.90;93.80;;;;;;5093780;28;20444;-71
2021/03/16 05:34:05;;;;;;;22.00;4.50;;;6.90;93.70;;;;;;5093754;28;20448;-72
2021/03/16 05:36:32;;;;;;;15.73;3.57;;;6.90;93.70;;;;;;5093410;28;20435;-72
2021/03/16 05:38:58;;;;;;;15.60;3.50;;;6.90;93.70;;;;;;5093932;28;20471;-72
2021/03/16 05:41:25;;;;;;;15.10;3.03;;;6.90;93.80;;;;;;5093742;28;20467;-72
2021/03/16 05:43:53;;;;;;;16.17;3.40;;;6.90;93.70;;;;;;5093309;28;20445;-72
2021/03/16 05:46:19;;;;;;;14.70;4.50;;;6.80;93.70;;;;;;5093511;28;20479;-72
2021/03/16 05:48:50;;;;;;;13.27;3.30;;;6.80;93.90;;;;;;5093159;28;20933;-72
2021/03/16 05:51:17;;;;;;;11.00;3.00;;;6.80;94.00;;;;;;5093556;28;20435;-72
2021/03/16 05:53:48;;;;;;;11.80;3.10;;;6.70;94.00;;;;;;5093524;28;20467;-72
2021/03/16 05:56:14;;;;;;;17.07;3.43;;;6.80;94.10;;;;;;5093516;28;20432;-72
2021/03/16 05:58:40;;;;;;;19.57;3.93;;;6.80;94.00;;;;;;5093607;28;20455;-72
2021/03/16 06:01:07;;;;;;;19.83;3.27;;;6.80;93.90;;;;;;5093168;28;20446;-72
2021/03/16 06:03:34;;;;;;;20.23;4.00;;;6.90;94.00;;;;;;5093446;28;20455;-72
2021/03/16 06:06:00;;;;;;;13.93;3.20;;;6.90;94.00;;;;;;5092992;28;20563;-72
2021/03/16 06:08:26;;;;;;;16.70;3.40;;;6.90;93.90;;;;;;5093404;28;20815;-72
2021/03/16 06:10:54;;;;;;;18.00;4.10;;;6.90;93.80;;;;;;5093281;28;20464;-72
2021/03/16 06:13:20;;;;;;;15.67;3.23;;;7.00;93.80;;;;;;5093076;28;20451;-72
2021/03/16 06:15:46;;;;;;;18.47;3.40;;;7.00;93.80;;;;;;5093320;28;20497;-72
2021/03/16 06:18:25;;;;;;;14.93;3.37;;;7.00;93.80;;;;;;5093034;28;20791;-71
2021/03/16 06:20:58;;;;;;;10.93;2.57;;;7.10;93.80;;;;;;5093254;28;20468;-72
2021/03/16 06:23:30;;;;;;;13.73;2.87;;;7.10;93.40;;;;;;5093015;28;20874;-72
2021/03/16 06:25:57;;;;;;;19.17;4.87;;;7.10;93.20;;;;;;5097022;28;20463;-72
2021/03/16 06:28:30;;;;;;;16.00;2.70;;;7.20;92.90;;;;;;5097206;28;20765;-72
2021/03/16 06:30:57;;;;;;;20.13;3.20;;;7.20;92.80;;;;;;5097085;28;20475;-72
2021/03/16 06:33:24;;;;;;;17.50;3.10;;;7.20;92.60;;;;;;5097072;28;20807;-72
2021/03/16 06:35:57;;;;;;;10.80;2.43;;;7.30;92.50;;;;;;5096997;28;20572;-72
2021/03/16 06:38:24;;;;;;;16.80;4.40;;;7.40;92.40;;;;;;5097044;28;20475;-72
2021/03/16 06:40:50;;;;;;;11.53;3.40;;;7.40;92.30;;;;;;5096501;28;20874;-72
2021/03/16 06:43:17;;;;;;;12.20;2.97;;;7.50;92.30;;;;;;5096665;28;20446;-72
2021/03/16 06:45:50;;;;;;;10.10;2.70;;;7.60;92.20;;;;;;5096461;28;20997;-72
2021/03/16 06:48:17;;;;;;;12.90;2.67;;;7.60;92.20;;;;;;5096827;28;20485;-72
2021/03/16 06:50:45;;;;;;;8.97;3.00;;;7.60;92.30;;;;;;5096906;28;20468;-72
2021/03/16 06:53:15;;;;;;;12.97;3.67;;;7.60;92.40;;;;;;5096949;28;20440;-72
2021/03/16 06:55:52;;;;;;;14.93;3.43;;;7.60;92.60;;;;;;5096663;28;20435;-72
2021/03/16 06:58:23;;;;;;;15.53;3.20;;;7.60;92.60;;;;;;5096478;28;20443;-72
2021/03/16 07:00:49;;;;;;;22.93;3.53;;;7.60;92.60;;;;;;5096527;28;20538;-72
2021/03/16 07:03:16;;;;;;;13.63;3.07;;;7.60;92.50;;;;;;5097373;28;20451;-72
2021/03/16 07:05:44;;;;;;;17.37;3.37;;;7.70;92.40;;;;;;5096197;28;20486;-72
2021/03/16 07:08:13;;;;;;;18.07;3.50;;;7.70;92.40;;;;;;5096425;28;20439;-72
2021/03/16 07:10:40;;;;;;;12.87;3.60;;;7.70;92.40;;;;;;5096008;28;20974;-72
2021/03/16 07:13:08;;;;;;;22.03;3.83;;;7.80;92.50;;;;;;5096336;28;20444;-72
2021/03/16 07:15:38;;;;;;;21.93;5.30;;;7.80;92.50;;;;;;5096371;28;20838;-73
2021/03/16 07:18:06;;;;;;;16.10;3.50;;;7.80;92.30;;;;;;5096395;28;20440;-73
2021/03/16 07:20:34;;;;;;;21.37;3.60;;;7.80;92.30;;;;;;5096265;28;20482;-73
2021/03/16 07:23:03;;;;;;;18.73;3.63;;;7.90;92.30;;;;;;5096276;28;20432;-73
2021/03/16 07:25:30;;;;;;;19.83;4.60;;;7.90;92.30;;;;;;5096107;28;20524;-73
2021/03/16 07:27:58;;;;;;;19.20;4.07;;;8.00;92.40;;;;;;5096220;28;20424;-73
2021/03/16 07:30:25;;;;;;;16.13;4.33;;;8.00;92.20;;;;;;5096107;28;20471;-73
2021/03/16 07:32:54;;;;;;;15.17;5.53;;;8.10;92.10;;;;;;5096122;28;20432;-73
2021/03/16 07:35:20;;;;;;;13.23;4.43;;;8.10;92.10;;;;;;5095082;28;20444;-73
2021/03/16 07:37:47;;;;;;;9.70;4.27;;;8.20;91.90;;;;;;5095298;28;20504;-73
2021/03/16 07:40:15;;;;;;;18.30;4.80;;;8.30;91.90;;;;;;5095930;28;20464;-73
2021/03/16 07:42:42;;;;;;;14.43;5.00;;;8.30;91.30;;;;;;5095819;28;20472;-73
2021/03/16 07:45:24;;;;;;;16.00;4.93;;;8.40;91.40;;;;;;5095912;28;20464;-73
2021/03/16 07:48:00;;;;;;;23.73;5.90;;;8.50;91.10;;;;;;5095946;28;20454;-73
2021/03/16 07:50:28;;;;;;;14.30;5.50;;;8.60;91.00;;;;;;5095408;28;20463;-72
2021/03/16 07:52:55;;;;;;;16.27;5.90;;;8.80;90.40;;;;;;5095849;28;20447;-72
2021/03/16 07:55:25;;;;;;;14.20;5.80;;;8.90;90.20;;;;;;5096302;28;20424;-72
2021/03/16 07:57:52;;;;;;;21.40;4.70;;;9.10;90.10;;;;;;5096697;28;20439;-72
2021/03/16 08:00:29;;;;;;;14.73;3.57;;;9.10;88.30;;;;;;5096325;28;20467;-73
2021/03/16 08:02:58;;;;;;;20.53;5.13;;;9.20;88.10;;;;;;5096737;28;20427;-72
2021/03/16 08:05:26;;;;;;;18.87;4.00;;;9.20;85.90;;;;;;5096176;28;20483;-72
2021/03/16 08:07:54;;;;;;;10.30;3.47;;;9.30;86.50;;;;;;5095915;28;20463;-72
2021/03/16 08:10:27;;;;;;;13.20;4.47;;;9.20;86.80;;;;;;5095252;28;20459;-72
2021/03/16 08:13:00;;;;;;;19.40;4.33;;;9.30;87.00;;;;;;5095257;28;20432;-72
2021/03/16 08:15:27;;;;;;;11.37;3.30;;;9.40;86.90;;;;;;5097044;28;20906;-73
2021/03/16 08:17:58;;;;;;;11.43;4.20;;;9.40;86.40;;;;;;5096166;28;20444;-73
2021/03/16 08:20:26;;;;;;;14.07;3.90;;;9.50;85.70;;;;;;5095211;28;20986;-73
2021/03/16 08:23:04;;;;;;;12.37;3.20;;;9.50;85.10;;;;;;5095027;28;20822;-73
2021/03/16 08:25:32;;;;;;;25.53;4.70;;;9.40;83.30;;;;;;5094434;28;20459;-73
2021/03/16 08:27:59;;;;;;;11.60;4.00;;;9.30;83.30;;;;;;5094384;28;20845;-72
2021/03/16 08:30:28;;;;;;;12.37;4.13;;;9.30;84.60;;;;;;5094799;28;20851;-71
2021/03/16 08:32:54;;;;;;;11.30;4.53;;;9.30;84.90;;;;;;5094736;28;20451;-73
2021/03/16 08:35:20;;;;;;;12.73;3.53;;;9.30;84.90;;;;;;5094740;28;20439;-72
2021/03/16 08:37:51;;;;;;;9.50;3.50;;;9.30;85.20;;;;;;5094670;28;20444;-71
2021/03/16 08:40:23;;;;;;;10.90;4.20;;;9.40;85.80;;;;;;5094272;28;20467;-71
2021/03/16 08:42:50;;;;;;;15.47;3.40;;;9.50;85.20;;;;;;5094544;28;20493;-73
2021/03/16 08:45:26;;;;;;;9.87;4.03;;;9.60;85.40;;;;;;5094535;28;20475;-72
2021/03/16 08:47:52;;;;;;;15.03;3.77;;;9.60;85.00;;;;;;5094138;28;20432;-71
2021/03/16 08:50:22;;;;;;;8.87;3.27;;;9.80;84.90;;;;;;5094359;28;20463;-73
2021/03/16 08:52:49;;;;;;;16.50;4.57;;;9.80;83.80;;;;;;5094388;28;20440;-72
2021/03/16 08:55:23;;;;;;;10.33;4.13;;;9.80;82.90;;;;;;5094331;28;20436;-73
2021/03/16 08:57:51;;;;;;;12.60;5.63;;;9.80;82.30;;;;;;5094957;28;20432;-73
2021/03/16 09:00:18;;;;;;;11.10;3.73;;;9.70;82.20;;;;;;5093894;28;20838;-73
2021/03/16 09:02:44;;;;;;;12.83;4.40;;;9.60;81.60;;;;;;5094850;28;20431;-73
2021/03/16 09:05:20;;;;;;;11.40;4.27;;;9.60;82.30;;;;;;5093694;28;20519;-73
2021/03/16 09:07:47;;;;;;;7.77;3.80;;;9.60;83.70;;;;;;5094216;28;20944;-73
2021/03/16 09:10:15;;;;;;;10.30;3.10;;;9.70;81.80;;;;;;5094079;28;20479;-72
2021/03/16 09:12:43;;;;;;;20.70;4.07;;;9.80;81.10;;;;;;5094159;28;20878;-73
2021/03/16 09:15:12;;;;;;;12.77;3.73;;;9.80;80.50;;;;;;5094104;28;20440;-73
2021/03/16 09:17:39;;;;;;;13.90;4.10;;;9.90;80.60;;;;;;5093983;28;20452;-73
2021/03/16 09:20:14;;;;;;;10.37;4.50;;;10.00;79.90;;;;;;5093909;28;20459;-73
2021/03/16 09:22:42;;;;;;;9.43;3.70;;;10.20;80.50;;;;;;5093972;28;20783;-73
2021/03/16 09:25:09;;;;;;;14.20;3.50;;;10.30;79.00;;;;;;5093863;28;20479;-73
2021/03/16 09:27:39;;;;;;;8.43;3.80;;;10.40;77.50;;;;;;5093924;28;20785;-73
2021/03/16 09:30:07;;;;;;;8.60;3.60;;;10.60;77.90;;;;;;5094019;28;20464;-73
2021/03/16 09:32:34;;;;;;;12.10;3.60;;;10.70;77.50;;;;;;5093824;28;20440;-73
2021/03/16 09:35:01;;;;;;;9.90;3.47;;;10.90;76.60;;;;;;5093788;28;20428;-73
2021/03/16 09:37:27;;;;;;;10.03;3.00;;;11.10;75.30;;;;;;5093845;28;20541;-73
2021/03/16 09:39:55;;;;;;;6.90;2.50;;;11.30;73.20;;;;;;5093705;28;20493;-73
2021/03/16 09:42:32;;;;;;;12.97;3.90;;;11.40;72.70;;;;;;5093392;28;20887;-73
2021/03/16 09:44:59;;;;;;;16.33;3.20;;;11.50;71.60;;;;;;5093566;28;20488;-73
2021/03/16 09:47:26;;;;;;;11.13;2.80;;;11.60;70.10;;;;;;5093377;28;20981;-73
2021/03/16 09:50:06;;;;;;;11.33;2.80;;;11.70;70.60;;;;;;5093617;28;20463;-73
2021/03/16 09:52:32;;;;;;;9.90;3.70;;;11.80;69.70;;;;;;5093633;28;20459;-73
2021/03/16 09:54:59;;;;;;;10.40;3.20;;;11.80;69.30;;;;;;5093517;28;20448;-73
2021/03/16 09:57:34;;;;;;;6.80;2.17;;;11.80;69.20;;;;;;5093583;28;20428;-73
2021/03/16 10:00:00;;;;;;;10.90;2.13;;;11.60;68.00;;;;;;5095952;28;20455;-73
2021/03/16 10:02:35;;;;;;;7.73;3.13;;;11.40;67.50;;;;;;5097741;28;20435;-73
2021/03/16 10:05:20;;;;;;;10.73;4.03;;;11.20;69.40;;;;;;5097741;28;20427;-73
2021/03/16 10:07:51;;;;;;;11.57;3.50;;;10.90;72.80;;;;;;5097881;28;20435;-73
2021/03/16 10:10:18;;;;;;;11.33;2.83;;;10.70;74.90;;;;;;5097521;28;20512;-73
2021/03/16 10:12:57;;;;;;;7.87;3.37;;;10.60;76.00;;;;;;5097133;28;20968;-73
2021/03/16 10:15:26;;;;;;;7.90;3.27;;;10.60;76.90;;;;;;5099363;28;20424;-73
2021/03/16 10:17:55;;;;;;;6.57;2.97;;;10.50;75.30;;;;;;5097395;28;20462;-73
2021/03/16 10:20:27;;;;;;;5.83;2.80;;;10.40;75.50;;;;;;5097039;28;20493;-73
2021/03/16 10:22:57;;;;;;;11.27;3.27;;;10.40;75.80;;;;;;5097352;28;20461;-72
2021/03/16 10:25:26;;;;;;;4.70;3.17;;;10.50;76.50;;;;;;5097240;28;20511;-73
2021/03/16 10:28:00;;;;;;;5.20;2.90;;;10.80;77.10;;;;;;5097207;28;20423;-72
2021/03/16 10:30:35;;;;;;;11.37;3.37;;;11.00;75.80;;;;;;5097283;28;20471;-73
2021/03/16 10:33:03;;;;;;;15.00;2.90;;;11.30;73.60;;;;;;5097113;28;20510;-73
2021/03/16 10:35:31;;;;;;;4.70;3.03;;;11.60;71.60;;;;;;5097130;28;20481;-73
2021/03/16 10:37:57;;;;;;;11.13;3.80;;;11.80;72.50;;;;;;5097052;28;20450;-73
2021/03/16 10:40:24;;;;;;;6.90;2.73;;;12.00;72.40;;;;;;5097013;28;20459;-73
2021/03/16 10:42:51;;;;;;;5.77;2.13;;;12.00;70.90;;;;;;5096952;28;20447;-73
2021/03/16 10:45:19;;;;;;;8.97;3.40;;;12.10;69.50;;;;;;5096776;28;20459;-73
2021/03/16 10:47:45;;;;;;;14.70;2.73;;;12.10;67.90;;;;;;5096846;28;20455;-73
2021/03/16 10:50:12;;;;;;;8.07;2.53;;;12.20;68.40;;;;;;5096791;28;20497;-73
2021/03/16 10:52:39;;;;;;;11.77;2.97;;;12.10;67.30;;;;;;5096814;28;20806;-73
2021/03/16 10:55:06;;;;;;;4.60;2.30;;;12.10;69.30;;;;;;5096738;28;20444;-73
2021/03/16 10:57:33;;;;;;;8.73;2.57;;;12.00;69.10;;;;;;5096310;28;20478;-73
2021/03/16 10:59:59;;;;;;;9.33;2.57;;;11.90;67.60;;;;;;5096640;28;20464;-73
2021/03/16 11:02:26;;;;;;;6.87;2.17;;;11.80;66.90;;;;;;5096641;28;20444;-73
2021/03/16 11:04:52;;;;;;;5.27;2.23;;;11.90;68.10;;;;;;5096473;28;20437;-73
2021/03/16 11:07:19;;;;;;;7.70;2.30;;;12.20;68.90;;;;;;5096041;28;20858;-73
2021/03/16 11:09:46;;;;;;;7.20;2.77;;;12.50;66.80;;;;;;5096309;28;20489;-73
2021/03/16 11:12:12;;;;;;;8.80;2.97;;;12.60;64.60;;;;;;5096134;28;20501;-73
2021/03/16 11:14:39;;;;;;;7.53;2.00;;;12.50;64.00;;;;;;5096453;28;20448;-73
2021/03/16 11:17:05;;;;;;;6.30;2.10;;;12.80;65.20;;;;;;5096465;28;20424;-73
2021/03/16 11:19:31;;;;;;;6.97;2.57;;;13.30;61.30;;;;;;5096543;28;20470;-73
2021/03/16 11:21:57;;;;;;;5.93;2.30;;;13.80;59.30;;;;;;5095858;28;20423;-73
2021/03/16 11:24:24;;;;;;;7.30;1.93;;;14.30;57.40;;;;;;5096121;28;20501;-73
2021/03/16 11:26:51;;;;;;;6.00;2.20;;;15.10;55.00;;;;;;5096006;28;20468;-72
2021/03/16 11:29:17;;;;;;;6.40;1.87;;;15.80;53.90;;;;;;5095993;28;20537;-73
2021/03/16 11:31:43;;;;;;;7.30;2.30;;;16.60;51.80;;;;;;5095975;28;20428;-73
2021/03/16 11:34:10;;;;;;;6.27;2.00;;;17.00;48.70;;;;;;5095913;28;20440;-73
2021/03/16 11:36:36;;;;;;;6.70;2.37;;;17.20;48.30;;;;;;5096025;28;20427;-73
2021/03/16 11:39:03;;;;;;;6.23;2.23;;;17.00;47.30;;;;;;5095853;28;20542;-73
2021/03/16 11:41:30;;;;;;;5.63;3.20;;;16.70;48.90;;;;;;5096138;28;20420;-72
2021/03/16 11:43:56;;;;;;;7.43;2.60;;;16.40;48.90;;;;;;5095780;28;20459;-72
2021/03/16 11:46:23;;;;;;;5.43;2.50;;;15.90;49.60;;;;;;5095637;28;20471;-72
2021/03/16 11:48:49;;;;;;;7.73;2.67;;;15.30;50.70;;;;;;5095260;28;20819;-71
2021/03/16 11:51:15;;;;;;;6.73;3.20;;;14.80;51.40;;;;;;5095629;28;20447;-74
2021/03/16 11:53:41;;;;;;;16.50;3.60;;;14.40;52.70;;;;;;5095652;28;20455;-73
2021/03/16 11:56:07;;;;;;;6.87;2.50;;;14.00;54.50;;;;;;5095575;28;20466;-73
2021/03/16 11:58:35;;;;;;;3.97;2.20;;;13.40;54.70;;;;;;5095498;28;20443;-73
2021/03/16 12:01:01;;;;;;;8.30;2.30;;;12.90;57.00;;;;;;5096346;28;21022;-73
2021/03/16 12:03:28;;;;;;;6.73;2.47;;;12.50;58.70;;;;;;5095355;28;20450;-73
2021/03/16 12:05:54;;;;;;;6.77;2.93;;;12.20;61.40;;;;;;5095223;28;20484;-73
2021/03/16 12:08:20;;;;;;;6.27;2.80;;;11.90;64.50;;;;;;5095310;28;20448;-73
2021/03/16 12:10:47;;;;;;;8.27;2.90;;;11.70;66.10;;;;;;5095179;28;20463;-72
2021/03/16 12:13:13;;;;;;;4.10;1.57;;;11.70;67.60;;;;;;5095255;28;20443;-72
2021/03/16 12:15:40;;;;;;;4.70;1.80;;;11.70;66.90;;;;;;5095102;28;20459;-73
2021/03/16 12:18:07;;;;;;;5.13;1.50;;;11.60;66.00;;;;;;5095245;28;20451;-73
2021/03/16 12:20:33;;;;;;;4.60;1.17;;;11.60;64.60;;;;;;5095060;28;20470;-73
2021/03/16 12:22:59;;;;;;;4.70;2.10;;;11.50;63.10;;;;;;5094239;28;20440;-73
2021/03/16 12:25:25;;;;;;;5.20;2.10;;;11.50;65.30;;;;;;5095133;28;20474;-73
2021/03/16 12:27:52;;;;;;;8.43;2.10;;;11.50;64.80;;;;;;5094970;28;20436;-73
2021/03/16 12:30:19;;;;;;;7.40;2.27;;;11.40;67.10;;;;;;5094873;28;20471;-73
2021/03/16 12:32:46;;;;;;;6.00;2.13;;;11.30;68.20;;;;;;5094648;28;20929;-73
2021/03/16 12:35:13;;;;;;;7.03;1.60;;;11.20;67.90;;;;;;5094791;28;20447;-73
2021/03/16 12:37:41;;;;;;;3.20;1.70;;;11.20;67.70;;;;;;5094783;28;20440;-73
2021/03/16 12:40:08;;;;;;;10.27;1.97;;;11.30;68.50;;;;;;5094687;28;20482;-73
2021/03/16 12:42:35;;;;;;;8.33;1.73;;;11.40;68.40;;;;;;5094681;28;20454;-73
2021/03/16 12:45:03;;;;;;;5.30;1.63;;;11.60;66.50;;;;;;5094667;28;20454;-73
2021/03/16 12:47:30;;;;;;;2.97;1.10;;;11.70;64.90;;;;;;5094263;28;20463;-73
2021/03/16 12:49:57;;;;;;;8.80;2.30;;;11.80;64.30;;;;;;5094607;28;20878;-73